Terminal Aerodrome Forecast
Issued by NWS Charleston, WV

Current Version | Previous Version | Text Only | Print | Product List | Glossary Off
Versions: 1 2 3 4 5 6 7 8 9 10 11 12 13 14 15 16 17 18 19 20 21 22 23

000
FTUS41 KRLX 090200 AAA
TAFEKN
TAF AMD
KEKN 090241Z 0903/0924 24011G17KT P6SM VCTS BKN045CB
     FM090600 25009KT 3SM BR SCT045
     FM090800 25004KT 1SM BR SCT045
     FM091300 26008KT 4SM BR BKN045
     FM091400 26007KT P6SM BKN045
     FM091700 26009KT P6SM BKN045
     FM092100 27009KT P6SM SCT045=

USA.gov is the U.S. government's official web portal to all federal, state and local government web resources and services.